Wyandotte, Michigan
Current Conditions -  °F | °C
As of 9:34 AM on Thursday 18 Dec 2014 (Local Time) from KONZ Reporting Station
Overcast Overcast  
Wind Chill: -5°   Ceiling: 2400
Heat Index: -1°   Visibility: 10mi
Dew Point: -4°   Wind: 8mph
Humidity: 80%   Direction: 260°W
Pressure: 30.2"   Gusts: NA
Location:  42.2°N, 83.15°W
Report Text: KONZ 181434Z AUTO 26007KT 10SM OVC024 M01/M04 A3020 RMK AO2
Loading
Personal Weather Stations






























Interactive Weather Map New forecast layout! Learn more

10-Day Weather Forecast

Advertisements
Track Severe Weather on mobile